createdAt,value
2018-05-07T00:00:00.636Z,98.00
2018-05-07T00:02:28.727Z,98.00
2018-05-07T00:04:56.815Z,98.00
2018-05-07T00:07:24.919Z,97.90
2018-05-07T00:09:53.045Z,98.10
2018-05-07T00:12:21.108Z,98.10
2018-05-07T00:14:49.990Z,98.20
2018-05-07T00:17:18.089Z,98.20
2018-05-07T00:19:46.183Z,98.30
2018-05-07T00:22:15.071Z,98.30
2018-05-07T00:24:43.183Z,98.30
2018-05-07T00:27:11.326Z,98.40
2018-05-07T00:29:39.411Z,98.40
2018-05-07T00:32:07.518Z,98.20
2018-05-07T00:34:36.391Z,97.80
2018-05-07T00:37:04.483Z,97.80
2018-05-07T00:39:32.591Z,98.30
2018-05-07T00:42:01.483Z,98.90
2018-05-07T00:44:29.662Z,98.50
2018-05-07T00:46:57.791Z,98.70
2018-05-07T00:49:25.870Z,98.70
2018-05-07T00:51:54.901Z,98.70
2018-05-07T00:54:23.019Z,98.80
2018-05-07T00:56:51.144Z,98.80
2018-05-07T00:59:19.997Z,98.70
2018-05-07T01:01:48.145Z,98.70
2018-05-07T01:04:16.297Z,98.70
2018-05-07T01:06:44.457Z,99.10
2018-05-07T01:09:12.572Z,99.20
2018-05-07T01:11:40.650Z,99.30
2018-05-07T01:14:09.525Z,99.50
2018-05-07T01:16:37.646Z,99.50
2018-05-07T01:19:06.494Z,99.90
2018-05-07T01:21:34.603Z,99.60
2018-05-07T01:24:02.725Z,99.80
2018-05-07T01:26:31.592Z,99.60
2018-05-07T01:28:59.739Z,99.60
2018-05-07T01:31:27.885Z,99.60
2018-05-07T01:33:55.987Z,99.60
2018-05-07T01:36:24.847Z,99.90
2018-05-07T01:38:52.947Z,99.70
2018-05-07T01:41:21.127Z,99.70
2018-05-07T01:43:49.231Z,99.70
2018-05-07T01:46:17.340Z,99.80
2018-05-07T01:48:45.449Z,99.90
2018-05-07T01:51:13.535Z,99.90
2018-05-07T01:53:41.659Z,99.60
2018-05-07T01:56:09.772Z,99.70
2018-05-07T01:58:38.631Z,99.90
2018-05-07T02:01:06.731Z,99.80
2018-05-07T02:03:34.868Z,99.80
2018-05-07T02:06:02.950Z,99.90
2018-05-07T02:08:31.035Z,99.90
2018-05-07T02:10:59.149Z,99.90
2018-05-07T02:13:27.216Z,99.90
2018-05-07T02:15:55.301Z,99.90
2018-05-07T02:18:23.455Z,99.90
2018-05-07T02:20:52.280Z,99.90
2018-05-07T02:23:20.400Z,99.90
2018-05-07T02:25:48.498Z,99.90
2018-05-07T02:28:17.408Z,99.90
2018-05-07T02:30:45.522Z,99.90
2018-05-07T02:33:14.375Z,99.90
2018-05-07T02:35:42.458Z,99.90
2018-05-07T02:38:10.628Z,99.90
2018-05-07T02:40:38.708Z,99.90
2018-05-07T02:43:06.835Z,99.90
2018-05-07T02:45:35.734Z,99.90
2018-05-07T02:48:03.855Z,99.90
2018-05-07T02:50:32.704Z,99.90
2018-05-07T02:53:00.853Z,99.90
2018-05-07T02:55:28.943Z,99.90
2018-05-07T02:57:57.103Z,99.90
2018-05-07T03:00:26.000Z,99.90
2018-05-07T03:02:54.131Z,99.90
2018-05-07T03:05:22.215Z,99.90
2018-05-07T03:07:50.360Z,99.90
2018-05-07T03:10:19.265Z,99.90
2018-05-07T03:12:48.168Z,99.90
2018-05-07T03:15:16.237Z,99.90
2018-05-07T03:17:44.329Z,99.90
2018-05-07T03:20:13.187Z,99.90
2018-05-07T03:22:41.313Z,99.90
2018-05-07T03:25:10.166Z,99.90
2018-05-07T03:27:38.289Z,99.90
2018-05-07T03:30:06.437Z,99.90
2018-05-07T03:32:34.556Z,99.90
2018-05-07T03:35:02.661Z,99.90
2018-05-07T03:37:31.537Z,99.90
2018-05-07T03:39:59.621Z,99.90
2018-05-07T03:42:27.735Z,99.90
2018-05-07T03:44:56.602Z,99.90
2018-05-07T03:47:24.696Z,99.90
2018-05-07T03:49:52.799Z,99.90
2018-05-07T03:52:21.704Z,99.90
2018-05-07T03:54:49.810Z,99.90
2018-05-07T03:57:17.963Z,99.90
2018-05-07T03:59:46.926Z,99.90
2018-05-07T04:02:14.991Z,99.90
2018-05-07T04:04:43.077Z,99.90
2018-05-07T04:07:11.147Z,99.90
2018-05-07T04:09:40.008Z,99.90
2018-05-07T04:12:08.118Z,99.90
2018-05-07T04:14:36.223Z,99.90
2018-05-07T04:17:16.227Z,99.90
2018-05-07T04:19:56.207Z,99.90
2018-05-07T04:22:36.107Z,99.90
2018-05-07T04:25:05.011Z,99.90
2018-05-07T04:27:33.878Z,99.90
2018-05-07T04:30:01.949Z,99.90
2018-05-07T04:32:30.041Z,99.90
2018-05-07T04:34:58.145Z,99.90
2018-05-07T04:37:26.236Z,99.60
2018-05-07T04:39:54.337Z,98.70
2018-05-07T04:42:23.179Z,97.30
2018-05-07T04:44:51.271Z,97.20
2018-05-07T04:47:19.368Z,96.50
2018-05-07T04:49:47.454Z,95.00
2018-05-07T04:52:15.571Z,94.10
2018-05-07T04:54:44.439Z,91.70
2018-05-07T04:57:12.540Z,91.50
2018-05-07T04:59:40.662Z,91.00
2018-05-07T05:02:09.492Z,88.30
2018-05-07T05:04:37.592Z,88.20
2018-05-07T05:07:05.796Z,86.40
2018-05-07T05:09:34.597Z,84.20
2018-05-07T05:12:02.692Z,84.30
2018-05-07T05:14:30.795Z,83.50
2018-05-07T05:16:59.688Z,82.10
2018-05-07T05:19:27.788Z,81.80
2018-05-07T05:21:56.619Z,80.50
2018-05-07T05:24:24.703Z,80.40
2018-05-07T05:26:52.821Z,78.00
2018-05-07T05:29:20.913Z,75.90
2018-05-07T05:31:49.054Z,71.50
2018-05-07T05:34:17.147Z,72.10
2018-05-07T05:36:45.228Z,68.20
2018-05-07T05:39:13.322Z,67.70
2018-05-07T05:41:41.418Z,65.80
2018-05-07T05:44:09.532Z,65.40
2018-05-07T05:46:37.635Z,64.70
2018-05-07T05:49:05.696Z,64.30
2018-05-07T05:51:33.830Z,64.40
2018-05-07T05:54:01.931Z,63.10
2018-05-07T05:56:30.114Z,61.40
2018-05-07T05:58:58.201Z,60.00
2018-05-07T06:01:26.298Z,59.30
2018-05-07T06:03:54.380Z,58.70
2018-05-07T06:06:22.477Z,59.50
2018-05-07T06:08:50.571Z,57.80
2018-05-07T06:11:18.659Z,57.20
2018-05-07T06:13:46.759Z,58.60
2018-05-07T06:16:15.637Z,58.50
2018-05-07T06:18:43.695Z,58.40
2018-05-07T06:21:11.884Z,58.20
2018-05-07T06:23:39.983Z,57.80
2018-05-07T06:26:08.175Z,57.50
2018-05-07T06:28:36.268Z,57.30
2018-05-07T06:31:04.372Z,56.60
2018-05-07T06:33:33.218Z,55.70
2018-05-07T06:36:01.352Z,55.70
2018-05-07T06:38:29.406Z,55.10
2018-05-07T06:40:57.524Z,54.30
2018-05-07T06:43:26.429Z,55.30
2018-05-07T06:45:54.511Z,55.20
2018-05-07T06:48:22.584Z,55.30
2018-05-07T06:50:51.471Z,53.80
2018-05-07T06:53:19.539Z,53.70
2018-05-07T06:55:47.630Z,51.90
2018-05-07T06:58:15.730Z,49.50
2018-05-07T07:00:44.598Z,50.70
2018-05-07T07:03:12.660Z,50.60
2018-05-07T07:05:40.788Z,50.20
2018-05-07T07:08:08.949Z,49.70
2018-05-07T07:10:36.984Z,49.70
2018-05-07T07:13:05.052Z,48.30
2018-05-07T07:15:33.170Z,50.50
2018-05-07T07:18:02.002Z,52.50
2018-05-07T07:20:30.069Z,52.50
2018-05-07T07:22:58.162Z,49.40
2018-05-07T07:25:26.284Z,49.80
2018-05-07T07:27:54.489Z,50.70
2018-05-07T07:30:22.530Z,52.80
2018-05-07T07:32:50.639Z,50.50
2018-05-07T07:35:18.704Z,50.30
2018-05-07T07:37:46.804Z,50.80
2018-05-07T07:40:14.895Z,50.70
2018-05-07T07:42:42.999Z,47.40
2018-05-07T07:45:11.146Z,46.30
2018-05-07T07:47:39.218Z,47.70
2018-05-07T07:50:07.309Z,48.00
2018-05-07T07:52:35.414Z,49.00
2018-05-07T07:55:03.517Z,46.20
2018-05-07T07:57:31.599Z,46.10
2018-05-07T07:59:59.666Z,47.90
2018-05-07T08:02:27.746Z,45.50
2018-05-07T08:04:55.803Z,45.20
2018-05-07T08:07:23.930Z,45.10
2018-05-07T08:09:52.009Z,45.50
2018-05-07T08:12:20.242Z,45.50
2018-05-07T08:14:48.266Z,46.40
2018-05-07T08:17:16.340Z,48.30
2018-05-07T08:19:44.415Z,49.80
2018-05-07T08:22:12.519Z,47.00
2018-05-07T08:24:40.655Z,44.50
2018-05-07T08:27:08.690Z,46.00
2018-05-07T08:29:36.804Z,45.50
2018-05-07T08:32:04.911Z,45.90
2018-05-07T08:34:33.759Z,46.30
2018-05-07T08:37:01.913Z,45.20
2018-05-07T08:39:30.753Z,43.50
2018-05-07T08:41:58.829Z,43.50
2018-05-07T08:44:26.939Z,42.20
2018-05-07T08:46:55.019Z,46.00
2018-05-07T08:49:23.113Z,46.90
2018-05-07T08:51:51.190Z,48.50
2018-05-07T08:54:19.310Z,45.30
2018-05-07T08:56:48.181Z,46.40
2018-05-07T08:59:16.274Z,46.30
2018-05-07T09:01:44.383Z,47.10
2018-05-07T09:04:13.249Z,47.60
2018-05-07T09:06:41.347Z,46.90
2018-05-07T09:09:09.477Z,47.00
2018-05-07T09:11:37.581Z,46.60
2018-05-07T09:14:05.676Z,47.50
2018-05-07T09:16:33.768Z,47.00
2018-05-07T09:19:01.866Z,46.00
2018-05-07T09:21:29.950Z,46.50
2018-05-07T09:23:58.074Z,46.40
2018-05-07T09:26:26.919Z,45.00
2018-05-07T09:28:55.007Z,44.90
2018-05-07T09:31:23.190Z,43.90
2018-05-07T09:33:51.215Z,43.90
2018-05-07T09:36:19.287Z,43.60
2018-05-07T09:38:47.386Z,46.00
2018-05-07T09:41:15.468Z,42.60
2018-05-07T09:43:43.556Z,39.10
2018-05-07T09:46:11.669Z,38.30
2018-05-07T09:48:39.784Z,39.50
2018-05-07T09:51:07.866Z,42.20
2018-05-07T09:53:35.948Z,43.70
2018-05-07T09:56:04.080Z,41.30
2018-05-07T09:58:32.159Z,39.70
2018-05-07T10:01:00.229Z,40.00
2018-05-07T10:03:28.320Z,42.70
2018-05-07T10:05:56.419Z,41.90
2018-05-07T10:08:25.310Z,41.60
2018-05-07T10:10:53.399Z,41.10
2018-05-07T10:13:22.257Z,36.40
2018-05-07T10:15:50.341Z,36.40
2018-05-07T10:18:18.373Z,38.30
2018-05-07T10:20:46.441Z,39.40
2018-05-07T10:23:14.478Z,41.00
2018-05-07T10:25:42.542Z,39.60
2018-05-07T10:28:11.359Z,38.80
2018-05-07T10:30:39.394Z,38.80
2018-05-07T10:33:08.949Z,40.60
2018-05-07T10:35:37.758Z,39.50
2018-05-07T10:38:05.809Z,39.40
2018-05-07T10:40:33.836Z,39.50
2018-05-07T10:43:01.894Z,39.90
2018-05-07T10:45:30.703Z,39.30
2018-05-07T10:47:59.517Z,40.00
2018-05-07T10:50:27.572Z,39.90
2018-05-07T10:52:55.611Z,39.90
2018-05-07T10:55:23.674Z,38.10
2018-05-07T10:57:51.738Z,40.70
2018-05-07T11:00:20.542Z,37.80
2018-05-07T11:02:48.591Z,37.80
2018-05-07T11:05:16.625Z,39.30
2018-05-07T11:07:44.670Z,38.00
2018-05-07T11:10:12.714Z,38.20
2018-05-07T11:12:40.776Z,37.40
2018-05-07T11:15:08.821Z,37.80
2018-05-07T11:17:36.867Z,37.10
2018-05-07T11:20:04.911Z,36.10
2018-05-07T11:22:33.723Z,37.00
2018-05-07T11:25:01.779Z,37.00
2018-05-07T11:27:29.815Z,38.00
2018-05-07T11:29:57.862Z,35.30
2018-05-07T11:32:26.680Z,36.70
2018-05-07T11:34:54.714Z,36.50
2018-05-07T11:37:24.272Z,37.10
2018-05-07T11:39:53.081Z,38.00
2018-05-07T11:42:21.123Z,38.00
2018-05-07T11:44:49.166Z,36.90
2018-05-07T11:47:17.286Z,37.00
2018-05-07T11:49:46.035Z,36.60
2018-05-07T11:52:14.077Z,36.50
2018-05-07T11:54:42.138Z,35.70
2018-05-07T11:57:10.171Z,34.20
2018-05-07T11:59:38.977Z,36.10
2018-05-07T12:02:07.014Z,36.10
2018-05-07T12:04:35.061Z,35.40
2018-05-07T12:07:03.105Z,33.30
2018-05-07T12:09:31.156Z,32.10
2018-05-07T12:11:59.216Z,31.30
2018-05-07T12:14:27.244Z,30.00
2018-05-07T12:16:55.289Z,31.10
2018-05-07T12:19:23.335Z,30.00
2018-05-07T12:21:52.153Z,27.40
2018-05-07T12:24:20.203Z,27.30
2018-05-07T12:26:49.751Z,29.70
2018-05-07T12:29:17.810Z,29.50
2018-05-07T12:31:46.011Z,30.00
2018-05-07T12:34:13.890Z,30.70
2018-05-07T12:36:41.940Z,29.70
2018-05-07T12:39:09.986Z,30.80
2018-05-07T12:41:38.040Z,31.10
2018-05-07T12:44:06.868Z,31.20
2018-05-07T12:46:34.919Z,30.30
2018-05-07T12:49:03.735Z,31.50
2018-05-07T12:51:33.368Z,29.50
2018-05-07T12:54:01.406Z,29.40
2018-05-07T12:56:29.455Z,29.60
2018-05-07T12:58:57.488Z,28.10
2018-05-07T13:01:25.540Z,27.40
2018-05-07T13:03:53.580Z,29.30
2018-05-07T13:06:21.632Z,29.50
2018-05-07T13:08:49.679Z,28.60
2018-05-07T13:11:17.724Z,29.50
2018-05-07T13:13:45.770Z,28.40
2018-05-07T13:16:13.810Z,26.80
2018-05-07T13:18:41.846Z,28.70
2018-05-07T13:21:09.901Z,29.80
2018-05-07T13:23:37.943Z,28.70
2018-05-07T13:26:06.758Z,28.00
2018-05-07T13:28:34.792Z,27.90
2018-05-07T13:31:02.833Z,27.70
2018-05-07T13:33:30.876Z,28.10
2018-05-07T13:35:58.923Z,29.30
2018-05-07T13:38:26.966Z,30.10
2018-05-07T13:40:55.790Z,28.40
2018-05-07T13:43:23.890Z,28.40
2018-05-07T13:45:51.914Z,27.40
2018-05-07T13:48:20.737Z,26.40
2018-05-07T13:50:48.799Z,26.20
2018-05-07T13:53:16.840Z,27.10
2018-05-07T13:55:44.883Z,27.70
2018-05-07T13:58:13.680Z,26.60
2018-05-07T14:00:42.488Z,27.90
2018-05-07T14:03:11.300Z,28.20
2018-05-07T14:05:39.347Z,28.10
2018-05-07T14:08:07.383Z,27.90
2018-05-07T14:10:35.441Z,27.50
2018-05-07T14:13:04.242Z,28.20
2018-05-07T14:15:33.052Z,28.60
2018-05-07T14:18:01.135Z,28.60
2018-05-07T14:20:30.004Z,30.20
2018-05-07T14:22:58.106Z,30.20
2018-05-07T14:25:27.024Z,29.50
2018-05-07T14:27:55.905Z,29.90
2018-05-07T14:30:24.013Z,29.90
2018-05-07T14:32:52.893Z,29.60
2018-05-07T14:35:20.936Z,29.60
2018-05-07T14:37:49.400Z,28.10
2018-05-07T14:40:17.538Z,28.00
2018-05-07T14:42:45.631Z,28.70
2018-05-07T14:45:13.715Z,29.00
2018-05-07T14:47:41.815Z,28.10
2018-05-07T14:50:09.922Z,28.70
2018-05-07T14:52:38.784Z,28.10
2018-05-07T14:55:06.880Z,28.10
2018-05-07T14:57:34.976Z,28.70
2018-05-07T15:00:03.060Z,29.40
2018-05-07T15:02:31.929Z,29.30
2018-05-07T15:05:00.035Z,29.20
2018-05-07T15:07:28.149Z,29.50
2018-05-07T15:09:57.011Z,32.00
2018-05-07T15:12:25.130Z,31.40
2018-05-07T15:14:54.010Z,32.70
2018-05-07T15:17:22.169Z,32.60
2018-05-07T15:19:50.273Z,32.50
2018-05-07T15:22:19.861Z,30.80
2018-05-07T15:24:47.965Z,30.70
2018-05-07T15:27:16.109Z,31.50
2018-05-07T15:29:44.221Z,30.60
2018-05-07T15:32:12.301Z,30.90
2018-05-07T15:34:40.388Z,31.80
2018-05-07T15:37:08.507Z,31.50
2018-05-07T15:39:36.615Z,32.00
2018-05-07T15:42:05.475Z,32.60
2018-05-07T15:44:33.589Z,32.60
2018-05-07T15:47:01.687Z,33.40
2018-05-07T15:49:29.789Z,34.50
2018-05-07T15:51:58.704Z,35.70
2018-05-07T15:54:26.808Z,35.70
2018-05-07T15:56:54.933Z,32.60
2018-05-07T15:59:23.001Z,33.50
2018-05-07T16:01:51.109Z,34.10
2018-05-07T16:04:19.932Z,33.50
2018-05-07T16:06:48.889Z,33.50
2018-05-07T16:09:17.007Z,33.50
2018-05-07T16:11:45.889Z,34.40
2018-05-07T16:14:13.985Z,34.30
2018-05-07T16:16:42.067Z,34.10
2018-05-07T16:19:10.164Z,34.50
2018-05-07T16:21:39.029Z,35.50
2018-05-07T16:24:07.112Z,34.50
2018-05-07T16:26:35.293Z,34.90
2018-05-07T16:29:03.277Z,35.50
2018-05-07T16:31:31.420Z,35.60
2018-05-07T16:34:00.260Z,35.10
2018-05-07T16:36:28.372Z,35.00
2018-05-07T16:38:56.492Z,36.30
2018-05-07T16:41:24.573Z,36.20
2018-05-07T16:43:53.473Z,36.50
2018-05-07T16:46:22.320Z,37.00
2018-05-07T16:48:50.405Z,36.30
2018-05-07T16:51:18.524Z,35.00
2018-05-07T16:53:46.624Z,36.10
2018-05-07T16:56:15.504Z,37.20
2018-05-07T16:58:43.598Z,37.00
2018-05-07T17:01:11.703Z,37.40
2018-05-07T17:03:39.818Z,37.80
2018-05-07T17:06:07.887Z,37.70
2018-05-07T17:08:36.012Z,36.50
2018-05-07T17:11:04.103Z,37.30
2018-05-07T17:13:32.220Z,36.50
2018-05-07T17:16:00.322Z,36.90
2018-05-07T17:18:29.228Z,36.40
2018-05-07T17:20:57.323Z,35.30
2018-05-07T17:23:25.477Z,36.50
2018-05-07T17:25:53.540Z,36.40
2018-05-07T17:28:21.642Z,36.30
2018-05-07T17:30:49.717Z,35.50
2018-05-07T17:33:17.855Z,35.10
2018-05-07T17:35:45.922Z,36.00
2018-05-07T17:38:14.792Z,36.00
2018-05-07T17:40:42.855Z,35.80
2018-05-07T17:43:10.931Z,35.70
2018-05-07T17:45:57.875Z,36.70
2018-05-07T17:48:37.797Z,36.50
2018-05-07T17:51:05.875Z,37.20
2018-05-07T17:53:33.994Z,37.20
2018-05-07T17:56:02.088Z,37.10
2018-05-07T17:58:30.185Z,37.90
2018-05-07T18:00:58.293Z,37.80
2018-05-07T18:03:27.941Z,36.50
2018-05-07T18:05:56.098Z,37.10
2018-05-07T18:08:24.248Z,38.00
2018-05-07T18:10:52.314Z,36.90
2018-05-07T18:13:20.445Z,36.90
2018-05-07T18:15:48.563Z,37.00
2018-05-07T18:18:17.520Z,36.70
2018-05-07T18:20:45.608Z,36.70
2018-05-07T18:23:13.729Z,36.90
2018-05-07T18:25:42.617Z,36.60
2018-05-07T18:28:10.733Z,36.50
2018-05-07T18:30:38.836Z,36.40
2018-05-07T18:33:06.953Z,36.40
2018-05-07T18:35:35.082Z,36.30
2018-05-07T18:38:03.938Z,36.40
2018-05-07T18:40:32.003Z,36.40
2018-05-07T18:43:00.081Z,36.70
2018-05-07T18:45:28.169Z,36.90
2018-05-07T18:47:56.284Z,36.70
2018-05-07T18:50:24.401Z,37.00
2018-05-07T18:52:52.487Z,37.50
2018-05-07T18:55:21.463Z,37.40
2018-05-07T18:57:49.567Z,37.40
2018-05-07T19:00:18.434Z,38.60
2018-05-07T19:02:46.523Z,38.40
2018-05-07T19:05:14.676Z,40.40
2018-05-07T19:07:42.774Z,39.10
2018-05-07T19:10:10.863Z,40.90
2018-05-07T19:12:39.036Z,40.20
2018-05-07T19:15:07.130Z,40.70
2018-05-07T19:17:35.179Z,44.10
2018-05-07T19:20:04.201Z,43.80
2018-05-07T19:22:33.175Z,44.70
2018-05-07T19:25:01.410Z,44.70
2018-05-07T19:27:29.523Z,44.40
2018-05-07T19:29:57.667Z,48.60
2018-05-07T19:32:25.735Z,47.30
2018-05-07T19:34:54.587Z,50.90
2018-05-07T19:37:22.909Z,50.90
2018-05-07T19:39:51.107Z,51.70
2018-05-07T19:42:19.156Z,51.90
2018-05-07T19:44:47.388Z,52.00
2018-05-07T19:47:16.336Z,50.00
2018-05-07T19:49:44.471Z,50.00
2018-05-07T19:52:13.401Z,53.70
2018-05-07T19:54:41.544Z,53.70
2018-05-07T19:57:09.791Z,54.50
2018-05-07T19:59:38.032Z,56.10
2018-05-07T20:02:07.201Z,58.20
2018-05-07T20:04:35.289Z,58.00
2018-05-07T20:07:03.654Z,59.20
2018-05-07T20:09:31.756Z,59.90
2018-05-07T20:11:59.894Z,60.80
2018-05-07T20:14:27.971Z,61.60
2018-05-07T20:16:56.121Z,62.40
2018-05-07T20:19:24.208Z,64.20
2018-05-07T20:21:53.295Z,65.30
2018-05-07T20:24:21.399Z,66.60
2018-05-07T20:26:49.496Z,66.70
2018-05-07T20:29:17.605Z,68.20
2018-05-07T20:31:45.742Z,68.60
2018-05-07T20:34:13.835Z,69.50
2018-05-07T20:36:41.922Z,69.80
2018-05-07T20:39:10.031Z,70.50
2018-05-07T20:41:38.172Z,71.30
2018-05-07T20:44:06.274Z,72.80
2018-05-07T20:46:34.444Z,73.60
2018-05-07T20:49:02.570Z,74.20
2018-05-07T20:51:30.697Z,74.80
2018-05-07T20:53:59.564Z,75.30
2018-05-07T20:56:27.697Z,75.20
2018-05-07T20:58:55.828Z,75.50
2018-05-07T21:01:23.927Z,75.60
2018-05-07T21:03:52.020Z,75.70
2018-05-07T21:06:20.125Z,77.50
2018-05-07T21:08:48.328Z,78.70
2018-05-07T21:11:16.576Z,79.20
2018-05-07T21:13:44.720Z,80.10
2018-05-07T21:16:12.860Z,80.20
2018-05-07T21:18:40.992Z,80.30
2018-05-07T21:21:09.114Z,80.30
2018-05-07T21:23:37.207Z,81.10
2018-05-07T21:26:05.333Z,82.10
2018-05-07T21:28:33.415Z,83.00
2018-05-07T21:31:01.539Z,83.20
2018-05-07T21:33:29.644Z,83.60
2018-05-07T21:35:57.760Z,83.80
2018-05-07T21:38:25.885Z,84.50
2018-05-07T21:40:53.997Z,83.80
2018-05-07T21:43:22.107Z,84.50
2018-05-07T21:45:51.095Z,84.60
2018-05-07T21:48:19.283Z,84.60
2018-05-07T21:50:48.163Z,85.90
2018-05-07T21:53:16.279Z,85.20
2018-05-07T21:55:45.189Z,86.80
2018-05-07T21:58:13.279Z,86.80
2018-05-07T22:00:41.371Z,87.50
2018-05-07T22:03:09.500Z,87.60
2018-05-07T22:05:37.615Z,88.10
2018-05-07T22:08:06.679Z,89.00
2018-05-07T22:10:34.693Z,88.10
2018-05-07T22:13:02.856Z,88.80
2018-05-07T22:15:30.939Z,88.50
2018-05-07T22:17:59.097Z,89.20
2018-05-07T22:20:27.180Z,87.00
2018-05-07T22:22:55.336Z,86.80
2018-05-07T22:25:24.227Z,87.30
2018-05-07T22:27:52.347Z,87.20
2018-05-07T22:30:20.444Z,88.00
2018-05-07T22:32:48.571Z,88.30
2018-05-07T22:35:16.678Z,89.60
2018-05-07T22:37:44.781Z,89.80
2018-05-07T22:40:13.640Z,90.70
2018-05-07T22:42:41.773Z,90.70
2018-05-07T22:45:09.891Z,91.50
2018-05-07T22:47:38.041Z,91.20
2018-05-07T22:50:06.136Z,91.70
2018-05-07T22:52:34.272Z,91.80
2018-05-07T22:55:02.445Z,92.00
2018-05-07T22:57:30.536Z,92.20
2018-05-07T22:59:58.616Z,92.70
2018-05-07T23:02:26.720Z,92.50
2018-05-07T23:04:54.834Z,92.90
2018-05-07T23:07:23.704Z,93.40
2018-05-07T23:09:51.816Z,93.40
2018-05-07T23:12:20.669Z,93.90
2018-05-07T23:14:48.808Z,93.80
2018-05-07T23:17:16.878Z,94.20
2018-05-07T23:19:46.499Z,94.70
2018-05-07T23:22:14.602Z,94.70
2018-05-07T23:24:43.480Z,95.00
2018-05-07T23:27:11.631Z,95.00
2018-05-07T23:29:39.764Z,95.10
2018-05-07T23:32:08.632Z,95.10
2018-05-07T23:34:36.732Z,95.10
2018-05-07T23:37:04.834Z,95.30
2018-05-07T23:39:32.898Z,95.50
2018-05-07T23:42:00.997Z,95.90
2018-05-07T23:44:29.106Z,96.10
2018-05-07T23:46:57.969Z,96.20
2018-05-07T23:49:26.062Z,96.10
2018-05-07T23:51:54.201Z,94.50
2018-05-07T23:54:22.264Z,94.10
2018-05-07T23:56:50.381Z,94.30
2018-05-07T23:59:18.441Z,94.50
